sensor_id;sensor_type;location;lat;lon;timestamp;P1;durP1;ratioP1;P2;durP2;ratioP2
51838;SDS011;37886;53.174;6.368;2023-08-07T00:00:39;647.42;;;588.13;;
51838;SDS011;37886;53.174;6.368;2023-08-07T00:03:05;650.20;;;595.30;;
51838;SDS011;37886;53.174;6.368;2023-08-07T00:05:31;917.35;;;827.92;;
51838;SDS011;37886;53.174;6.368;2023-08-07T00:07:57;494.05;;;455.52;;
51838;SDS011;37886;53.174;6.368;2023-08-07T00:10:22;817.72;;;742.33;;
51838;SDS011;37886;53.174;6.368;2023-08-07T00:12:49;904.28;;;818.55;;
51838;SDS011;37886;53.174;6.368;2023-08-07T00:15:15;974.72;;;874.85;;
51838;SDS011;37886;53.174;6.368;2023-08-07T00:17:40;838.78;;;758.47;;
51838;SDS011;37886;53.174;6.368;2023-08-07T00:20:07;1051.47;;;943.70;;
51838;SDS011;37886;53.174;6.368;2023-08-07T00:22:33;807.55;;;733.17;;
51838;SDS011;37886;53.174;6.368;2023-08-07T00:24:59;976.60;;;879.90;;
51838;SDS011;37886;53.174;6.368;2023-08-07T00:27:25;769.53;;;700.40;;
51838;SDS011;37886;53.174;6.368;2023-08-07T00:29:50;959.70;;;865.08;;
51838;SDS011;37886;53.174;6.368;2023-08-07T00:32:16;842.83;;;760.50;;
51838;SDS011;37886;53.174;6.368;2023-08-07T00:34:42;900.20;;;817.28;;
51838;SDS011;37886;53.174;6.368;2023-08-07T00:37:08;985.80;;;887.83;;
51838;SDS011;37886;53.174;6.368;2023-08-07T00:39:34;970.30;;;872.65;;
51838;SDS011;37886;53.174;6.368;2023-08-07T00:41:59;1049.10;;;942.90;;
51838;SDS011;37886;53.174;6.368;2023-08-07T00:44:25;976.72;;;879.80;;
51838;SDS011;37886;53.174;6.368;2023-08-07T00:46:51;1038.85;;;934.55;;
51838;SDS011;37886;53.174;6.368;2023-08-07T00:49:17;956.58;;;865.33;;
51838;SDS011;37886;53.174;6.368;2023-08-07T00:51:45;995.67;;;897.47;;
51838;SDS011;37886;53.174;6.368;2023-08-07T00:54:11;1008.42;;;907.08;;
51838;SDS011;37886;53.174;6.368;2023-08-07T00:56:40;987.83;;;890.72;;
51838;SDS011;37886;53.174;6.368;2023-08-07T00:59:05;965.63;;;871.08;;
51838;SDS011;37886;53.174;6.368;2023-08-07T01:01:32;1027.28;;;926.13;;
51838;SDS011;37886;53.174;6.368;2023-08-07T01:03:58;987.90;;;890.63;;
51838;SDS011;37886;53.174;6.368;2023-08-07T01:06:23;1000.30;;;900.75;;
51838;SDS011;37886;53.174;6.368;2023-08-07T01:08:49;1008.03;;;906.72;;
51838;SDS011;37886;53.174;6.368;2023-08-07T01:11:24;1039.30;;;934.65;;
51838;SDS011;37886;53.174;6.368;2023-08-07T01:16:45;929.33;;;841.25;;
51838;SDS011;37886;53.174;6.368;2023-08-07T01:19:23;975.20;;;881.60;;
51838;SDS011;37886;53.174;6.368;2023-08-07T01:24:50;862.63;;;784.38;;
51838;SDS011;37886;53.174;6.368;2023-08-07T01:29:59;875.47;;;794.15;;
51838;SDS011;37886;53.174;6.368;2023-08-07T01:35:09;918.13;;;832.40;;
51838;SDS011;37886;53.174;6.368;2023-08-07T01:37:38;732.03;;;668.67;;
51838;SDS011;37886;53.174;6.368;2023-08-07T01:40:06;571.10;;;518.90;;
51838;SDS011;37886;53.174;6.368;2023-08-07T01:42:35;813.67;;;738.78;;
51838;SDS011;37886;53.174;6.368;2023-08-07T01:45:02;651.65;;;593.50;;
51838;SDS011;37886;53.174;6.368;2023-08-07T01:47:29;908.90;;;824.35;;
51838;SDS011;37886;53.174;6.368;2023-08-07T01:49:54;674.38;;;612.35;;
51838;SDS011;37886;53.174;6.368;2023-08-07T01:52:20;904.75;;;817.13;;
51838;SDS011;37886;53.174;6.368;2023-08-07T01:54:46;837.78;;;757.92;;
51838;SDS011;37886;53.174;6.368;2023-08-07T01:57:12;882.75;;;800.63;;
51838;SDS011;37886;53.174;6.368;2023-08-07T01:59:38;764.10;;;691.20;;
51838;SDS011;37886;53.174;6.368;2023-08-07T02:02:03;830.45;;;755.15;;
51838;SDS011;37886;53.174;6.368;2023-08-07T02:04:29;795.35;;;722.78;;
51838;SDS011;37886;53.174;6.368;2023-08-07T02:06:55;594.88;;;538.72;;
51838;SDS011;37886;53.174;6.368;2023-08-07T02:09:21;732.55;;;666.53;;
51838;SDS011;37886;53.174;6.368;2023-08-07T02:11:47;778.40;;;707.10;;
51838;SDS011;37886;53.174;6.368;2023-08-07T02:14:13;934.70;;;843.85;;
51838;SDS011;37886;53.174;6.368;2023-08-07T02:16:39;852.80;;;775.50;;
51838;SDS011;37886;53.174;6.368;2023-08-07T02:19:04;830.15;;;754.20;;
51838;SDS011;37886;53.174;6.368;2023-08-07T02:21:31;707.00;;;642.85;;
51838;SDS011;37886;53.174;6.368;2023-08-07T02:23:56;844.13;;;768.45;;
51838;SDS011;37886;53.174;6.368;2023-08-07T02:26:22;865.75;;;785.90;;
51838;SDS011;37886;53.174;6.368;2023-08-07T02:28:48;867.50;;;784.85;;
51838;SDS011;37886;53.174;6.368;2023-08-07T02:31:14;713.20;;;649.15;;
51838;SDS011;37886;53.174;6.368;2023-08-07T02:33:39;679.80;;;619.00;;
51838;SDS011;37886;53.174;6.368;2023-08-07T02:36:06;789.65;;;715.08;;
51838;SDS011;37886;53.174;6.368;2023-08-07T02:38:32;762.83;;;696.53;;
51838;SDS011;37886;53.174;6.368;2023-08-07T02:40:59;580.92;;;525.97;;
51838;SDS011;37886;53.174;6.368;2023-08-07T02:43:24;870.75;;;789.58;;
51838;SDS011;37886;53.174;6.368;2023-08-07T02:45:51;603.90;;;544.10;;
51838;SDS011;37886;53.174;6.368;2023-08-07T02:48:17;727.83;;;664.20;;
51838;SDS011;37886;53.174;6.368;2023-08-07T02:50:43;537.88;;;487.35;;
51838;SDS011;37886;53.174;6.368;2023-08-07T02:53:09;587.17;;;530.67;;
51838;SDS011;37886;53.174;6.368;2023-08-07T02:55:36;754.83;;;679.20;;
51838;SDS011;37886;53.174;6.368;2023-08-07T02:58:02;908.42;;;817.63;;
51838;SDS011;37886;53.174;6.368;2023-08-07T03:00:27;894.22;;;804.42;;
51838;SDS011;37886;53.174;6.368;2023-08-07T03:02:53;892.88;;;807.47;;
51838;SDS011;37886;53.174;6.368;2023-08-07T03:05:19;746.92;;;677.20;;
51838;SDS011;37886;53.174;6.368;2023-08-07T03:07:44;591.78;;;532.88;;
51838;SDS011;37886;53.174;6.368;2023-08-07T03:10:10;682.28;;;613.90;;
51838;SDS011;37886;53.174;6.368;2023-08-07T03:12:36;850.17;;;762.67;;
51838;SDS011;37886;53.174;6.368;2023-08-07T03:15:04;918.25;;;822.58;;
51838;SDS011;37886;53.174;6.368;2023-08-07T03:17:30;916.67;;;824.88;;
51838;SDS011;37886;53.174;6.368;2023-08-07T03:19:56;899.65;;;811.35;;
51838;SDS011;37886;53.174;6.368;2023-08-07T03:22:21;883.83;;;798.17;;
51838;SDS011;37886;53.174;6.368;2023-08-07T03:24:47;964.28;;;867.60;;
51838;SDS011;37886;53.174;6.368;2023-08-07T03:27:13;647.80;;;584.95;;
51838;SDS011;37886;53.174;6.368;2023-08-07T03:29:39;652.58;;;587.28;;
51838;SDS011;37886;53.174;6.368;2023-08-07T03:32:05;887.92;;;796.35;;
51838;SDS011;37886;53.174;6.368;2023-08-07T03:34:31;820.10;;;737.33;;
51838;SDS011;37886;53.174;6.368;2023-08-07T03:36:57;693.83;;;620.28;;
51838;SDS011;37886;53.174;6.368;2023-08-07T03:39:24;555.70;;;495.38;;
51838;SDS011;37886;53.174;6.368;2023-08-07T03:41:50;951.53;;;848.75;;
51838;SDS011;37886;53.174;6.368;2023-08-07T03:44:16;573.72;;;512.35;;
51838;SDS011;37886;53.174;6.368;2023-08-07T03:46:42;933.08;;;831.50;;
51838;SDS011;37886;53.174;6.368;2023-08-07T03:49:07;925.28;;;827.10;;
51838;SDS011;37886;53.174;6.368;2023-08-07T03:51:33;494.25;;;440.83;;
51838;SDS011;37886;53.174;6.368;2023-08-07T03:53:59;697.13;;;619.22;;
51838;SDS011;37886;53.174;6.368;2023-08-07T03:56:25;925.72;;;825.00;;
51838;SDS011;37886;53.174;6.368;2023-08-07T03:58:51;938.72;;;834.45;;
51838;SDS011;37886;53.174;6.368;2023-08-07T04:01:16;836.40;;;748.35;;
51838;SDS011;37886;53.174;6.368;2023-08-07T04:03:42;801.50;;;717.63;;
51838;SDS011;37886;53.174;6.368;2023-08-07T04:06:08;790.05;;;705.33;;
51838;SDS011;37886;53.174;6.368;2023-08-07T04:08:35;933.53;;;832.92;;
51838;SDS011;37886;53.174;6.368;2023-08-07T04:11:02;883.83;;;797.78;;
51838;SDS011;37886;53.174;6.368;2023-08-07T04:13:29;889.83;;;800.63;;
51838;SDS011;37886;53.174;6.368;2023-08-07T04:15:56;989.25;;;888.72;;
51838;SDS011;37886;53.174;6.368;2023-08-07T04:18:22;775.58;;;702.95;;
51838;SDS011;37886;53.174;6.368;2023-08-07T04:20:49;973.83;;;875.38;;
51838;SDS011;37886;53.174;6.368;2023-08-07T04:23:18;949.92;;;858.28;;
51838;SDS011;37886;53.174;6.368;2023-08-07T04:25:44;954.03;;;860.33;;
51838;SDS011;37886;53.174;6.368;2023-08-07T04:28:12;952.63;;;857.10;;
51838;SDS011;37886;53.174;6.368;2023-08-07T04:30:38;975.88;;;877.80;;
51838;SDS011;37886;53.174;6.368;2023-08-07T04:33:04;893.33;;;808.55;;
51838;SDS011;37886;53.174;6.368;2023-08-07T04:35:30;900.35;;;807.50;;
51838;SDS011;37886;53.174;6.368;2023-08-07T04:37:56;916.67;;;822.58;;
51838;SDS011;37886;53.174;6.368;2023-08-07T04:40:22;720.50;;;641.67;;
51838;SDS011;37886;53.174;6.368;2023-08-07T04:42:50;855.28;;;768.38;;
51838;SDS011;37886;53.174;6.368;2023-08-07T04:45:16;951.90;;;853.72;;
51838;SDS011;37886;53.174;6.368;2023-08-07T04:47:42;895.75;;;806.63;;
51838;SDS011;37886;53.174;6.368;2023-08-07T04:50:08;884.47;;;791.88;;
51838;SDS011;37886;53.174;6.368;2023-08-07T04:52:35;948.17;;;845.50;;
51838;SDS011;37886;53.174;6.368;2023-08-07T04:55:01;950.75;;;852.78;;
51838;SDS011;37886;53.174;6.368;2023-08-07T04:57:26;920.25;;;825.28;;
51838;SDS011;37886;53.174;6.368;2023-08-07T04:59:52;769.58;;;689.33;;
51838;SDS011;37886;53.174;6.368;2023-08-07T05:02:18;922.33;;;823.80;;
51838;SDS011;37886;53.174;6.368;2023-08-07T05:04:45;921.20;;;802.15;;
51838;SDS011;37886;53.174;6.368;2023-08-07T05:07:10;935.28;;;834.63;;
51838;SDS011;37886;53.174;6.368;2023-08-07T05:09:37;1002.78;;;894.20;;
51838;SDS011;37886;53.174;6.368;2023-08-07T05:12:03;881.95;;;789.78;;
51838;SDS011;37886;53.174;6.368;2023-08-07T05:14:31;850.92;;;763.60;;
51838;SDS011;37886;53.174;6.368;2023-08-07T05:16:57;988.88;;;789.10;;
51838;SDS011;37886;53.174;6.368;2023-08-07T05:19:24;927.78;;;827.88;;
51838;SDS011;37886;53.174;6.368;2023-08-07T05:21:50;887.17;;;796.13;;
51838;SDS011;37886;53.174;6.368;2023-08-07T05:24:16;875.00;;;789.60;;
51838;SDS011;37886;53.174;6.368;2023-08-07T05:26:43;947.90;;;849.47;;
51838;SDS011;37886;53.174;6.368;2023-08-07T05:29:09;799.22;;;724.80;;
51838;SDS011;37886;53.174;6.368;2023-08-07T05:31:35;955.17;;;859.10;;
51838;SDS011;37886;53.174;6.368;2023-08-07T05:34:01;986.08;;;886.90;;
51838;SDS011;37886;53.174;6.368;2023-08-07T05:36:27;931.08;;;838.15;;
51838;SDS011;37886;53.174;6.368;2023-08-07T05:38:54;692.00;;;627.17;;
51838;SDS011;37886;53.174;6.368;2023-08-07T05:41:19;886.65;;;799.95;;
51838;SDS011;37886;53.174;6.368;2023-08-07T05:43:45;667.17;;;593.97;;
51838;SDS011;37886;53.174;6.368;2023-08-07T05:46:11;920.95;;;771.85;;
51838;SDS011;37886;53.174;6.368;2023-08-07T05:48:37;699.50;;;636.03;;
51838;SDS011;37886;53.174;6.368;2023-08-07T05:51:02;771.40;;;629.70;;
51838;SDS011;37886;53.174;6.368;2023-08-07T05:53:28;797.22;;;721.70;;
51838;SDS011;37886;53.174;6.368;2023-08-07T05:55:54;833.42;;;754.53;;
51838;SDS011;37886;53.174;6.368;2023-08-07T05:58:20;869.17;;;787.75;;
51838;SDS011;37886;53.174;6.368;2023-08-07T06:00:46;657.78;;;599.08;;
51838;SDS011;37886;53.174;6.368;2023-08-07T06:03:12;718.97;;;653.47;;
51838;SDS011;37886;53.174;6.368;2023-08-07T06:05:38;710.88;;;645.65;;
51838;SDS011;37886;53.174;6.368;2023-08-07T06:08:03;683.80;;;621.90;;
51838;SDS011;37886;53.174;6.368;2023-08-07T06:10:29;750.70;;;682.63;;
51838;SDS011;37886;53.174;6.368;2023-08-07T06:12:55;645.65;;;577.33;;
51838;SDS011;37886;53.174;6.368;2023-08-07T06:15:21;894.80;;;810.70;;
51838;SDS011;37886;53.174;6.368;2023-08-07T06:17:46;637.75;;;578.78;;
51838;SDS011;37886;53.174;6.368;2023-08-07T06:20:12;725.30;;;659.65;;
51838;SDS011;37886;53.174;6.368;2023-08-07T06:22:39;971.25;;;877.50;;
51838;SDS011;37886;53.174;6.368;2023-08-07T06:25:06;888.67;;;799.05;;
51838;SDS011;37886;53.174;6.368;2023-08-07T06:27:32;741.33;;;670.63;;
51838;SDS011;37886;53.174;6.368;2023-08-07T06:29:58;644.10;;;578.70;;
51838;SDS011;37886;53.174;6.368;2023-08-07T06:32:24;664.60;;;605.47;;
51838;SDS011;37886;53.174;6.368;2023-08-07T06:34:50;708.83;;;645.85;;
51838;SDS011;37886;53.174;6.368;2023-08-07T06:37:16;650.63;;;587.25;;
51838;SDS011;37886;53.174;6.368;2023-08-07T06:39:42;687.78;;;627.97;;
51838;SDS011;37886;53.174;6.368;2023-08-07T06:42:07;725.35;;;599.33;;
51838;SDS011;37886;53.174;6.368;2023-08-07T06:44:33;666.13;;;607.78;;
51838;SDS011;37886;53.174;6.368;2023-08-07T06:46:59;617.33;;;559.38;;
51838;SDS011;37886;53.174;6.368;2023-08-07T06:49:25;592.47;;;544.10;;
51838;SDS011;37886;53.174;6.368;2023-08-07T06:51:50;550.35;;;493.95;;
51838;SDS011;37886;53.174;6.368;2023-08-07T06:54:16;502.75;;;460.50;;
51838;SDS011;37886;53.174;6.368;2023-08-07T06:56:42;529.83;;;488.35;;
51838;SDS011;37886;53.174;6.368;2023-08-07T06:59:09;515.97;;;477.10;;
51838;SDS011;37886;53.174;6.368;2023-08-07T07:01:34;489.00;;;439.48;;
51838;SDS011;37886;53.174;6.368;2023-08-07T07:04:01;456.60;;;421.73;;
51838;SDS011;37886;53.174;6.368;2023-08-07T07:06:27;537.50;;;480.73;;
51838;SDS011;37886;53.174;6.368;2023-08-07T07:08:52;426.48;;;393.60;;
51838;SDS011;37886;53.174;6.368;2023-08-07T07:11:21;452.50;;;407.27;;
51838;SDS011;37886;53.174;6.368;2023-08-07T07:13:49;438.25;;;403.08;;
51838;SDS011;37886;53.174;6.368;2023-08-07T07:16:16;426.42;;;391.98;;
51838;SDS011;37886;53.174;6.368;2023-08-07T07:18:43;415.85;;;379.20;;
51838;SDS011;37886;53.174;6.368;2023-08-07T07:21:08;503.83;;;452.55;;
51838;SDS011;37886;53.174;6.368;2023-08-07T07:23:34;552.08;;;490.95;;
51838;SDS011;37886;53.174;6.368;2023-08-07T07:26:00;382.17;;;346.65;;
51838;SDS011;37886;53.174;6.368;2023-08-07T07:28:26;466.83;;;419.08;;
51838;SDS011;37886;53.174;6.368;2023-08-07T07:30:52;334.70;;;308.27;;
51838;SDS011;37886;53.174;6.368;2023-08-07T07:33:18;389.98;;;360.67;;
51838;SDS011;37886;53.174;6.368;2023-08-07T07:35:44;412.05;;;376.77;;
51838;SDS011;37886;53.174;6.368;2023-08-07T07:38:10;581.13;;;526.00;;
51838;SDS011;37886;53.174;6.368;2023-08-07T07:40:36;498.67;;;450.23;;
51838;SDS011;37886;53.174;6.368;2023-08-07T07:43:02;678.80;;;620.50;;
51838;SDS011;37886;53.174;6.368;2023-08-07T07:45:28;658.75;;;598.65;;
51838;SDS011;37886;53.174;6.368;2023-08-07T07:47:54;623.72;;;558.70;;
51838;SDS011;37886;53.174;6.368;2023-08-07T07:50:20;654.58;;;514.15;;
51838;SDS011;37886;53.174;6.368;2023-08-07T07:52:46;456.80;;;415.00;;
51838;SDS011;37886;53.174;6.368;2023-08-07T07:55:12;627.58;;;576.60;;
51838;SDS011;37886;53.174;6.368;2023-08-07T07:57:39;540.42;;;491.40;;
51838;SDS011;37886;53.174;6.368;2023-08-07T08:00:06;573.25;;;510.95;;
51838;SDS011;37886;53.174;6.368;2023-08-07T08:02:35;537.80;;;466.92;;
51838;SDS011;37886;53.174;6.368;2023-08-07T08:05:02;636.75;;;583.78;;
51838;SDS011;37886;53.174;6.368;2023-08-07T08:07:28;598.78;;;545.92;;
51838;SDS011;37886;53.174;6.368;2023-08-07T08:09:53;551.58;;;505.60;;
51838;SDS011;37886;53.174;6.368;2023-08-07T08:12:21;685.00;;;625.63;;
51838;SDS011;37886;53.174;6.368;2023-08-07T08:14:47;601.65;;;549.75;;
51838;SDS011;37886;53.174;6.368;2023-08-07T08:17:13;691.17;;;628.88;;
51838;SDS011;37886;53.174;6.368;2023-08-07T08:19:39;626.78;;;570.25;;
51838;SDS011;37886;53.174;6.368;2023-08-07T08:22:04;617.42;;;563.35;;
51838;SDS011;37886;53.174;6.368;2023-08-07T08:24:30;647.40;;;590.88;;
51838;SDS011;37886;53.174;6.368;2023-08-07T08:26:57;712.70;;;653.10;;
51838;SDS011;37886;53.174;6.368;2023-08-07T08:29:23;676.97;;;619.83;;
51838;SDS011;37886;53.174;6.368;2023-08-07T08:31:48;532.83;;;488.50;;
51838;SDS011;37886;53.174;6.368;2023-08-07T08:34:16;617.17;;;565.17;;
51838;SDS011;37886;53.174;6.368;2023-08-07T08:36:42;689.40;;;629.92;;
51838;SDS011;37886;53.174;6.368;2023-08-07T08:39:07;737.50;;;620.78;;
51838;SDS011;37886;53.174;6.368;2023-08-07T08:41:33;344.35;;;318.45;;
51838;SDS011;37886;53.174;6.368;2023-08-07T08:44:00;461.05;;;410.52;;
51838;SDS011;37886;53.174;6.368;2023-08-07T08:46:28;517.00;;;440.23;;
51838;SDS011;37886;53.174;6.368;2023-08-07T08:48:56;457.08;;;408.48;;
51838;SDS011;37886;53.174;6.368;2023-08-07T08:51:24;575.78;;;519.05;;
51838;SDS011;37886;53.174;6.368;2023-08-07T08:53:53;504.48;;;449.48;;
51838;SDS011;37886;53.174;6.368;2023-08-07T08:56:21;242.00;;;226.15;;
51838;SDS011;37886;53.174;6.368;2023-08-07T08:58:48;203.90;;;187.68;;
51838;SDS011;37886;53.174;6.368;2023-08-07T09:01:16;322.40;;;289.23;;
51838;SDS011;37886;53.174;6.368;2023-08-07T09:03:46;237.27;;;215.13;;
51838;SDS011;37886;53.174;6.368;2023-08-07T09:06:12;492.17;;;440.92;;
51838;SDS011;37886;53.174;6.368;2023-08-07T09:08:42;228.43;;;208.82;;
51838;SDS011;37886;53.174;6.368;2023-08-07T09:11:08;381.95;;;318.08;;
51838;SDS011;37886;53.174;6.368;2023-08-07T09:13:37;321.23;;;298.30;;
51838;SDS011;37886;53.174;6.368;2023-08-07T09:16:04;360.48;;;329.77;;
51838;SDS011;37886;53.174;6.368;2023-08-07T09:18:35;306.33;;;276.65;;
51838;SDS011;37886;53.174;6.368;2023-08-07T09:21:01;435.63;;;390.95;;
51838;SDS011;37886;53.174;6.368;2023-08-07T09:23:27;557.22;;;501.33;;
51838;SDS011;37886;53.174;6.368;2023-08-07T09:26:00;474.30;;;422.90;;
51838;SDS011;37886;53.174;6.368;2023-08-07T09:28:27;310.30;;;286.45;;
51838;SDS011;37886;53.174;6.368;2023-08-07T09:30:54;256.08;;;230.15;;
51838;SDS011;37886;53.174;6.368;2023-08-07T09:33:27;747.42;;;675.78;;
51838;SDS011;37886;53.174;6.368;2023-08-07T09:35:59;688.08;;;621.75;;
51838;SDS011;37886;53.174;6.368;2023-08-07T09:40:58;820.72;;;736.22;;
51838;SDS011;37886;53.174;6.368;2023-08-07T09:43:24;699.30;;;626.70;;
51838;SDS011;37886;53.174;6.368;2023-08-07T09:45:50;755.30;;;686.28;;
51838;SDS011;37886;53.174;6.368;2023-08-07T09:48:23;380.77;;;343.90;;
51838;SDS011;37886;53.174;6.368;2023-08-07T09:50:53;421.42;;;382.02;;
51838;SDS011;37886;53.174;6.368;2023-08-07T09:53:26;167.90;;;154.35;;
51838;SDS011;37886;53.174;6.368;2023-08-07T09:55:55;291.55;;;269.25;;
51838;SDS011;37886;53.174;6.368;2023-08-07T09:58:22;359.38;;;327.05;;
51838;SDS011;37886;53.174;6.368;2023-08-07T10:00:49;395.23;;;358.15;;
51838;SDS011;37886;53.174;6.368;2023-08-07T10:03:15;347.35;;;318.02;;
51838;SDS011;37886;53.174;6.368;2023-08-07T10:05:43;275.95;;;253.57;;
51838;SDS011;37886;53.174;6.368;2023-08-07T10:08:09;244.82;;;224.25;;
51838;SDS011;37886;53.174;6.368;2023-08-07T10:10:37;283.35;;;257.73;;
51838;SDS011;37886;53.174;6.368;2023-08-07T10:13:04;235.73;;;214.50;;
51838;SDS011;37886;53.174;6.368;2023-08-07T10:15:30;621.80;;;563.00;;
51838;SDS011;37886;53.174;6.368;2023-08-07T10:17:57;631.65;;;572.00;;
51838;SDS011;37886;53.174;6.368;2023-08-07T10:20:27;878.22;;;803.72;;
51838;SDS011;37886;53.174;6.368;2023-08-07T10:22:56;510.40;;;462.08;;
51838;SDS011;37886;53.174;6.368;2023-08-07T10:25:26;321.55;;;293.50;;
51838;SDS011;37886;53.174;6.368;2023-08-07T10:27:53;314.38;;;288.60;;
51838;SDS011;37886;53.174;6.368;2023-08-07T10:30:21;682.63;;;619.85;;
51838;SDS011;37886;53.174;6.368;2023-08-07T10:32:49;367.45;;;333.38;;
51838;SDS011;37886;53.174;6.368;2023-08-07T10:35:25;639.83;;;580.47;;
51838;SDS011;37886;53.174;6.368;2023-08-07T10:37:54;679.08;;;614.65;;
51838;SDS011;37886;53.174;6.368;2023-08-07T10:40:29;655.53;;;595.53;;
51838;SDS011;37886;53.174;6.368;2023-08-07T10:43:01;289.88;;;265.73;;
51838;SDS011;37886;53.174;6.368;2023-08-07T10:45:38;630.97;;;572.63;;
51838;SDS011;37886;53.174;6.368;2023-08-07T10:50:33;342.77;;;316.88;;
51838;SDS011;37886;53.174;6.368;2023-08-07T10:53:03;290.90;;;269.77;;
51838;SDS011;37886;53.174;6.368;2023-08-07T10:55:45;334.73;;;305.42;;
51838;SDS011;37886;53.174;6.368;2023-08-07T11:00:51;355.50;;;328.45;;
51838;SDS011;37886;53.174;6.368;2023-08-07T11:03:27;405.15;;;372.38;;
51838;SDS011;37886;53.174;6.368;2023-08-07T11:05:53;348.50;;;320.95;;
51838;SDS011;37886;53.174;6.368;2023-08-07T11:08:23;605.45;;;551.25;;
51838;SDS011;37886;53.174;6.368;2023-08-07T11:10:50;400.15;;;363.33;;
51838;SDS011;37886;53.174;6.368;2023-08-07T11:13:17;514.67;;;460.15;;
51838;SDS011;37886;53.174;6.368;2023-08-07T11:15:43;399.02;;;363.52;;
51838;SDS011;37886;53.174;6.368;2023-08-07T11:18:09;375.25;;;346.95;;
51838;SDS011;37886;53.174;6.368;2023-08-07T11:20:35;330.85;;;307.08;;
51838;SDS011;37886;53.174;6.368;2023-08-07T11:23:04;342.10;;;319.52;;
51838;SDS011;37886;53.174;6.368;2023-08-07T11:25:30;266.77;;;244.65;;
51838;SDS011;37886;53.174;6.368;2023-08-07T11:27:56;338.77;;;309.30;;
51838;SDS011;37886;53.174;6.368;2023-08-07T11:30:23;217.45;;;201.65;;
51838;SDS011;37886;53.174;6.368;2023-08-07T11:32:49;362.73;;;332.30;;
51838;SDS011;37886;53.174;6.368;2023-08-07T11:35:15;304.67;;;283.45;;
51838;SDS011;37886;53.174;6.368;2023-08-07T11:37:47;413.92;;;382.08;;
51838;SDS011;37886;53.174;6.368;2023-08-07T11:40:13;361.88;;;334.20;;
51838;SDS011;37886;53.174;6.368;2023-08-07T11:42:39;266.67;;;248.15;;
51838;SDS011;37886;53.174;6.368;2023-08-07T11:45:06;360.60;;;335.48;;
51838;SDS011;37886;53.174;6.368;2023-08-07T11:47:33;319.30;;;292.75;;
51838;SDS011;37886;53.174;6.368;2023-08-07T11:49:58;259.23;;;237.43;;
51838;SDS011;37886;53.174;6.368;2023-08-07T11:52:24;761.05;;;687.05;;
51838;SDS011;37886;53.174;6.368;2023-08-07T11:54:52;904.00;;;821.10;;
51838;SDS011;37886;53.174;6.368;2023-08-07T11:57:19;810.35;;;742.03;;
51838;SDS011;37886;53.174;6.368;2023-08-07T11:59:49;804.25;;;732.25;;
51838;SDS011;37886;53.174;6.368;2023-08-07T12:02:16;814.30;;;742.25;;
51838;SDS011;37886;53.174;6.368;2023-08-07T12:04:41;830.95;;;759.45;;
51838;SDS011;37886;53.174;6.368;2023-08-07T12:07:08;557.22;;;513.03;;
51838;SDS011;37886;53.174;6.368;2023-08-07T12:09:36;791.95;;;715.22;;
51838;SDS011;37886;53.174;6.368;2023-08-07T12:12:02;705.85;;;644.13;;
51838;SDS011;37886;53.174;6.368;2023-08-07T12:14:32;722.35;;;662.80;;
51838;SDS011;37886;53.174;6.368;2023-08-07T12:16:57;698.83;;;638.10;;
51838;SDS011;37886;53.174;6.368;2023-08-07T12:19:34;704.67;;;643.92;;
51838;SDS011;37886;53.174;6.368;2023-08-07T12:22:02;660.72;;;604.25;;
51838;SDS011;37886;53.174;6.368;2023-08-07T12:24:29;670.95;;;610.65;;
51838;SDS011;37886;53.174;6.368;2023-08-07T12:26:54;697.88;;;635.63;;
51838;SDS011;37886;53.174;6.368;2023-08-07T12:29:20;742.97;;;672.03;;
51838;SDS011;37886;53.174;6.368;2023-08-07T12:31:47;692.17;;;632.65;;
51838;SDS011;37886;53.174;6.368;2023-08-07T12:34:13;712.90;;;650.80;;
51838;SDS011;37886;53.174;6.368;2023-08-07T12:36:38;694.97;;;636.17;;
51838;SDS011;37886;53.174;6.368;2023-08-07T12:39:04;641.47;;;588.60;;
51838;SDS011;37886;53.174;6.368;2023-08-07T12:41:31;623.45;;;571.60;;
51838;SDS011;37886;53.174;6.368;2023-08-07T12:43:57;688.40;;;626.80;;
51838;SDS011;37886;53.174;6.368;2023-08-07T12:46:24;813.53;;;742.13;;
51838;SDS011;37886;53.174;6.368;2023-08-07T12:48:50;634.33;;;584.25;;
51838;SDS011;37886;53.174;6.368;2023-08-07T12:51:16;654.60;;;603.03;;
51838;SDS011;37886;53.174;6.368;2023-08-07T12:53:42;626.35;;;574.72;;
51838;SDS011;37886;53.174;6.368;2023-08-07T12:56:09;630.28;;;581.40;;
51838;SDS011;37886;53.174;6.368;2023-08-07T12:58:35;542.42;;;499.55;;
51838;SDS011;37886;53.174;6.368;2023-08-07T13:01:01;530.22;;;488.10;;
51838;SDS011;37886;53.174;6.368;2023-08-07T13:03:27;662.20;;;607.05;;
51838;SDS011;37886;53.174;6.368;2023-08-07T13:05:53;543.47;;;501.60;;
51838;SDS011;37886;53.174;6.368;2023-08-07T13:08:18;525.15;;;482.58;;
51838;SDS011;37886;53.174;6.368;2023-08-07T13:10:44;573.42;;;526.33;;
51838;SDS011;37886;53.174;6.368;2023-08-07T13:13:10;630.55;;;574.17;;
51838;SDS011;37886;53.174;6.368;2023-08-07T13:15:36;537.35;;;494.38;;
51838;SDS011;37886;53.174;6.368;2023-08-07T13:18:01;563.80;;;518.83;;
51838;SDS011;37886;53.174;6.368;2023-08-07T13:20:28;531.42;;;487.52;;
51838;SDS011;37886;53.174;6.368;2023-08-07T13:22:58;598.63;;;550.05;;
51838;SDS011;37886;53.174;6.368;2023-08-07T13:25:24;472.88;;;437.42;;
51838;SDS011;37886;53.174;6.368;2023-08-07T13:27:49;636.97;;;576.67;;
51838;SDS011;37886;53.174;6.368;2023-08-07T13:30:15;475.75;;;440.02;;
51838;SDS011;37886;53.174;6.368;2023-08-07T13:32:41;561.75;;;515.05;;
51838;SDS011;37886;53.174;6.368;2023-08-07T13:35:07;654.70;;;595.15;;
51838;SDS011;37886;53.174;6.368;2023-08-07T13:37:33;481.85;;;444.70;;
51838;SDS011;37886;53.174;6.368;2023-08-07T13:39:59;498.25;;;459.23;;
51838;SDS011;37886;53.174;6.368;2023-08-07T13:42:25;605.13;;;558.00;;
51838;SDS011;37886;53.174;6.368;2023-08-07T13:44:53;723.42;;;666.22;;
51838;SDS011;37886;53.174;6.368;2023-08-07T13:47:20;628.15;;;580.97;;
51838;SDS011;37886;53.174;6.368;2023-08-07T13:49:45;713.15;;;656.03;;
51838;SDS011;37886;53.174;6.368;2023-08-07T13:52:12;798.90;;;733.72;;
51838;SDS011;37886;53.174;6.368;2023-08-07T13:54:37;346.67;;;316.05;;
51838;SDS011;37886;53.174;6.368;2023-08-07T13:57:03;744.33;;;678.58;;
51838;SDS011;37886;53.174;6.368;2023-08-07T13:59:29;741.15;;;680.20;;
51838;SDS011;37886;53.174;6.368;2023-08-07T14:01:55;605.08;;;557.33;;
51838;SDS011;37886;53.174;6.368;2023-08-07T14:04:21;804.65;;;731.17;;
51838;SDS011;37886;53.174;6.368;2023-08-07T14:06:47;733.70;;;673.75;;
51838;SDS011;37886;53.174;6.368;2023-08-07T14:09:13;781.83;;;710.75;;
51838;SDS011;37886;53.174;6.368;2023-08-07T14:11:39;748.55;;;686.40;;